Time;durP1;ratioP1;P1;durP2;ratioP2;P2;SDS_P1;SDS_P2;PMS_P1;PMS_P2;Temp;Humidity;BMP_temperature;BMP_pressure;BME280_temperature;BME280_humidity;BME280_pressure;Samples;Min_cycle;Max_cycle;Signal;HPM_P1;HPM_P2
2022/03/26 00:02:04;;;;;;;37.42;17.20;;;;;;;10.31;52.44;103020.19;5076968;28;20193;-84
2022/03/26 00:04:29;;;;;;;37.33;18.33;;;;;;;10.29;52.89;103027.22;5080741;28;20028;-83
2022/03/26 00:06:54;;;;;;;34.38;17.50;;;;;;;10.28;52.76;103023.69;5076894;28;20035;-83
2022/03/26 00:09:20;;;;;;;38.70;19.50;;;;;;;10.22;52.49;103021.06;5081070;28;20028;-83
2022/03/26 00:11:45;;;;;;;33.60;17.25;;;;;;;10.22;53.70;103024.56;5080083;28;20032;-84
2022/03/26 00:14:11;;;;;;;41.97;19.55;;;;;;;10.22;52.82;103023.69;5080433;28;20034;-83
2022/03/26 00:16:36;;;;;;;39.72;18.48;;;;;;;10.15;52.97;103020.19;5082316;28;20024;-83
2022/03/26 00:19:01;;;;;;;36.13;18.42;;;;;;;10.12;52.97;103022.84;5083081;28;20391;-83
2022/03/26 00:21:27;;;;;;;38.33;18.60;;;;;;;10.12;54.16;103024.63;5084276;28;20089;-85
2022/03/26 00:23:52;;;;;;;34.03;19.00;;;;;;;10.06;53.42;103024.63;5083890;28;20084;-83
2022/03/26 00:26:18;;;;;;;43.33;19.35;;;;;;;9.98;53.30;103014.09;5084753;28;20028;-84
2022/03/26 00:28:43;;;;;;;37.88;18.80;;;;;;;9.93;53.23;103013.19;5084497;28;20071;-84
2022/03/26 00:31:09;;;;;;;38.40;18.58;;;;;;;9.85;53.60;103013.22;5084236;28;20033;-85
2022/03/26 00:33:34;;;;;;;34.53;17.77;;;;;;;9.81;53.52;103007.97;5084596;28;20063;-84
2022/03/26 00:36:00;;;;;;;38.80;18.38;;;;;;;9.77;53.91;103014.13;5085226;28;20023;-83
2022/03/26 00:38:26;;;;;;;35.67;18.23;;;;;;;9.74;54.92;103011.47;5085662;28;20071;-83
2022/03/26 00:40:51;;;;;;;34.65;17.27;;;;;;;9.64;54.30;103016.78;5082506;28;20476;-83
2022/03/26 00:43:16;;;;;;;39.75;18.13;;;;;;;9.41;55.46;103011.50;5085201;28;20024;-85
2022/03/26 00:45:42;;;;;;;35.53;18.17;;;;;;;9.38;55.58;103019.47;5083782;28;20437;-84
2022/03/26 00:48:08;;;;;;;31.80;17.08;;;;;;;9.37;56.83;103016.78;5083850;28;20035;-83
2022/03/26 00:50:34;;;;;;;31.92;15.48;;;;;;;9.34;55.87;103022.97;5084832;28;20024;-84
2022/03/26 00:52:59;;;;;;;32.25;17.05;;;;;;;9.26;55.06;103008.00;5084076;28;20119;-83
2022/03/26 00:55:25;;;;;;;35.75;18.35;;;;;;;9.28;55.00;103012.44;5083584;28;20398;-83
2022/03/26 00:57:50;;;;;;;33.45;17.23;;;;;;;9.28;57.24;103017.69;5083589;28;20030;-84
2022/03/26 01:00:16;;;;;;;34.17;17.23;;;;;;;9.10;56.15;103015.06;5083677;28;20111;-83
2022/03/26 01:02:41;;;;;;;40.88;17.73;;;;;;;9.07;56.37;103018.56;5083963;28;20032;-83
2022/03/26 01:05:07;;;;;;;35.00;16.85;;;;;;;9.11;57.24;103011.53;5083538;28;20027;-83
2022/03/26 01:07:32;;;;;;;34.47;17.63;;;;;;;9.05;56.43;103015.03;5080092;28;20028;-84
2022/03/26 01:09:58;;;;;;;32.45;17.98;;;;;;;8.94;60.53;103003.56;5085621;28;20023;-84
2022/03/26 01:12:25;;;;;;;30.85;16.75;;;;;;;8.89;58.16;103006.22;5078226;28;20035;-85
2022/03/26 01:14:52;;;;;;;39.60;18.38;;;;;;;8.50;58.82;103012.28;5084362;28;20486;-84
2022/03/26 01:17:17;;;;;;;36.00;17.65;;;;;;;8.30;58.34;103003.38;5082486;28;20403;-83
2022/03/26 01:19:43;;;;;;;35.55;18.08;;;;;;;8.29;57.87;103005.13;5080955;28;20060;-83
2022/03/26 01:22:09;;;;;;;33.15;17.30;;;;;;;8.33;58.27;103012.19;5081745;28;20475;-83
2022/03/26 01:24:34;;;;;;;35.40;18.05;;;;;;;8.40;58.08;103013.13;5080859;28;20038;-83
2022/03/26 01:27:00;;;;;;;36.97;17.13;;;;;;;8.40;58.33;103005.22;5082191;28;20040;-83
2022/03/26 01:29:25;;;;;;;36.85;17.63;;;;;;;8.36;58.45;103006.06;5084604;28;20024;-84
2022/03/26 01:31:51;;;;;;;34.20;16.75;;;;;;;8.36;58.86;103006.97;5085704;28;20391;-83
2022/03/26 01:34:17;;;;;;;32.17;16.42;;;;;;;8.37;58.46;103013.97;5080104;28;20133;-84
2022/03/26 01:36:43;;;;;;;37.28;18.50;;;;;;;8.27;62.43;103013.91;5081467;28;20593;-83
2022/03/26 01:39:08;;;;;;;35.08;16.42;;;;;;;8.25;58.75;103010.38;5083244;28;20020;-84
2022/03/26 01:41:34;;;;;;;33.03;15.88;;;;;;;8.29;60.14;103020.06;5083670;28;20066;-83
2022/03/26 01:43:59;;;;;;;35.95;17.85;;;;;;;8.19;61.61;103019.13;5084343;28;20055;-83
2022/03/26 01:46:25;;;;;;;33.80;16.10;;;;;;;8.11;60.48;103023.47;5081121;28;20039;-84
2022/03/26 01:48:51;;;;;;;36.70;15.85;;;;;;;8.00;63.72;103023.44;5083301;28;20036;-83
2022/03/26 01:51:17;;;;;;;29.85;16.00;;;;;;;8.02;61.26;103028.69;5084505;28;20379;-83
2022/03/26 01:53:51;;;;;;;34.60;15.75;;;;;;;7.89;61.17;103017.25;5082670;28;20475;-83
2022/03/26 01:56:17;;;;;;;34.58;15.10;;;;;;;7.92;60.71;103015.47;5078945;28;20445;-83
2022/03/26 01:58:43;;;;;;;27.63;14.82;;;;;;;7.91;60.39;103011.09;5081258;28;20463;-83
2022/03/26 02:01:09;;;;;;;32.70;16.05;;;;;;;7.96;60.31;103024.28;5084879;28;20067;-83
2022/03/26 02:03:35;;;;;;;29.30;15.27;;;;;;;7.98;60.00;103019.06;5082143;28;20483;-83
2022/03/26 02:06:01;;;;;;;33.95;15.32;;;;;;;7.90;60.32;103014.59;5082705;28;20048;-83
2022/03/26 02:08:26;;;;;;;34.30;15.75;;;;;;;7.88;60.50;103015.44;5083827;28;20028;-83
2022/03/26 02:10:52;;;;;;;31.58;15.30;;;;;;;7.80;60.54;103009.28;5085774;28;20067;-84
2022/03/26 02:13:19;;;;;;;33.53;15.57;;;;;;;7.81;59.95;103018.94;5081011;28;20032;-83
2022/03/26 02:15:44;;;;;;;31.48;15.48;;;;;;;7.79;60.31;103008.41;5083232;28;20477;-84
2022/03/26 02:18:10;;;;;;;37.63;16.20;;;;;;;7.80;60.55;103014.56;5082728;28;20024;-83
2022/03/26 02:20:36;;;;;;;33.58;17.67;;;;;;;7.74;60.45;103003.94;5083027;28;20104;-84
2022/03/26 02:23:01;;;;;;;33.90;16.02;;;;;;;7.78;60.00;103003.09;5079886;28;20376;-83
2022/03/26 02:25:27;;;;;;;34.63;16.50;;;;;;;7.82;60.07;103004.91;5079856;28;20036;-84
2022/03/26 02:27:52;;;;;;;39.50;16.73;;;;;;;7.85;60.63;103012.81;5082153;28;20368;-83
2022/03/26 02:30:19;;;;;;;36.47;17.13;;;;;;;7.84;59.98;103013.69;5079009;28;20509;-84
2022/03/26 02:32:44;;;;;;;28.48;14.65;;;;;;;7.84;59.91;103008.44;5081411;28;20590;-84
2022/03/26 02:35:10;;;;;;;30.83;15.25;;;;;;;7.72;60.21;103003.97;5081448;28;20069;-83
2022/03/26 02:37:35;;;;;;;36.25;15.65;;;;;;;7.69;60.31;103006.56;5081635;28;20314;-83
2022/03/26 02:40:04;;;;;;;29.17;14.57;;;;;;;7.66;60.04;103010.06;5082415;28;20479;-83
2022/03/26 02:42:29;;;;;;;31.23;16.80;;;;;;;7.59;60.39;103004.75;5083002;28;20024;-84
2022/03/26 02:44:55;;;;;;;36.03;15.27;;;;;;;7.54;60.91;103009.97;5081846;28;20028;-84
2022/03/26 02:47:20;;;;;;;27.98;13.93;;;;;;;7.51;60.56;103012.59;5081062;28;20038;-84
2022/03/26 02:49:45;;;;;;;30.35;15.45;;;;;;;7.40;60.82;103006.34;5084318;28;20035;-83
2022/03/26 02:52:11;;;;;;;31.08;15.73;;;;;;;7.43;61.12;103011.66;5083119;28;20024;-83
2022/03/26 02:54:36;;;;;;;33.15;16.17;;;;;;;7.34;62.15;103007.19;5081529;28;20111;-83
2022/03/26 02:57:02;;;;;;;34.33;17.00;;;;;;;7.35;61.14;103010.72;5078302;28;20107;-84
2022/03/26 02:59:28;;;;;;;34.63;16.08;;;;;;;7.24;60.52;103005.38;5078968;28;20024;-84
2022/03/26 03:01:53;;;;;;;35.38;16.27;;;;;;;7.15;61.33;103006.16;5080436;28;21254;-83
2022/03/26 03:04:22;;;;;;;32.90;15.20;;;;;;;7.06;62.63;103013.97;5080647;28;20064;-84
2022/03/26 03:06:48;;;;;;;33.95;15.82;;;;;;;6.96;63.27;103008.63;5074706;28;20403;-83
2022/03/26 03:09:14;;;;;;;37.40;15.75;;;;;;;6.95;64.59;103014.72;5081744;28;20036;-83
2022/03/26 03:11:40;;;;;;;33.80;16.90;;;;;;;6.96;63.43;103024.41;5082835;28;20038;-83
2022/03/26 03:14:07;;;;;;;35.67;15.43;;;;;;;6.98;63.29;103014.75;5082346;28;20038;-84
2022/03/26 03:16:32;;;;;;;37.60;16.73;;;;;;;6.97;63.09;103011.25;5079634;28;20016;-83
2022/03/26 03:18:58;;;;;;;32.60;14.95;;;;;;;6.94;62.48;103008.56;5082277;28;20031;-83
2022/03/26 03:21:24;;;;;;;34.20;16.42;;;;;;;6.95;63.43;103010.38;5080100;28;20032;-84
2022/03/26 03:23:49;;;;;;;35.05;16.95;;;;;;;6.90;65.46;103004.16;5080389;28;20034;-83
2022/03/26 03:26:15;;;;;;;34.47;17.95;;;;;;;6.89;67.79;103000.66;5079669;28;20036;-83
2022/03/26 03:28:41;;;;;;;35.40;16.90;;;;;;;6.96;67.08;103009.50;5077513;28;20499;-83
2022/03/26 03:31:07;;;;;;;33.58;16.90;;;;;;;6.95;64.59;103009.47;5077975;28;20023;-84
2022/03/26 03:33:32;;;;;;;34.00;17.23;;;;;;;6.93;64.01;103019.97;5080841;28;20096;-83
2022/03/26 03:35:57;;;;;;;32.72;17.02;;;;;;;6.86;66.14;103012.91;5080337;28;20024;-83
2022/03/26 03:38:24;;;;;;;35.58;17.52;;;;;;;6.83;63.21;103013.75;5080548;28;20089;-83
2022/03/26 03:40:50;;;;;;;34.60;15.70;;;;;;;6.72;62.27;103012.75;5079097;28;20511;-83
2022/03/26 03:43:15;;;;;;;34.45;16.52;;;;;;;6.62;63.90;103018.75;5081958;28;20031;-83
2022/03/26 03:45:40;;;;;;;33.05;16.23;;;;;;;6.49;64.71;103009.88;5078469;28;20028;-83
2022/03/26 03:48:06;;;;;;;26.88;14.13;;;;;;;6.47;66.22;103019.47;5080081;28;20967;-83
2022/03/26 03:50:31;;;;;;;30.98;15.30;;;;;;;6.44;66.16;103010.69;5078403;28;20032;-83
2022/03/26 03:52:56;;;;;;;33.92;16.13;;;;;;;6.41;65.38;103023.78;5079890;28;20507;-83
2022/03/26 03:55:22;;;;;;;30.50;15.32;;;;;;;6.35;64.71;103029.84;5081606;28;20067;-83
2022/03/26 03:57:47;;;;;;;34.78;16.77;;;;;;;6.31;64.68;103017.53;5078899;28;20131;-83
2022/03/26 04:00:15;;;;;;;28.58;15.50;;;;;;;6.33;66.32;103021.03;5081354;28;20092;-83
2022/03/26 04:02:41;;;;;;;33.60;15.35;;;;;;;6.27;64.12;103013.97;5080195;28;20107;-83
2022/03/26 04:05:09;;;;;;;38.65;16.42;;;;;;;6.33;64.39;103021.94;5080439;28;20032;-83
2022/03/26 04:07:38;;;;;;;32.92;16.15;;;;;;;6.35;64.12;103032.47;5079693;28;20036;-84
2022/03/26 04:10:07;;;;;;;34.10;15.68;;;;;;;6.33;64.76;103027.19;5077574;28;20039;-83
2022/03/26 04:12:33;;;;;;;34.88;15.73;;;;;;;6.36;64.76;103026.34;5079615;28;20084;-83
2022/03/26 04:14:58;;;;;;;41.03;17.83;;;;;;;6.35;65.44;103014.97;5079254;28;20028;-83
2022/03/26 04:17:23;;;;;;;36.63;16.42;;;;;;;6.45;64.20;103023.84;5080523;28;20406;-83
2022/03/26 04:19:48;;;;;;;44.47;17.23;;;;;;;6.42;64.43;103023.78;5079905;28;20036;-83
2022/03/26 04:22:14;;;;;;;32.63;16.70;;;;;;;6.42;66.00;103029.03;5080006;28;20620;-83
2022/03/26 04:24:40;;;;;;;34.88;17.05;;;;;;;6.36;66.54;103027.22;5078631;28;20028;-84
2022/03/26 04:27:05;;;;;;;35.40;18.48;;;;;;;6.32;64.87;103019.28;5078729;28;20086;-83
2022/03/26 04:29:31;;;;;;;33.50;16.42;;;;;;;6.29;67.71;103014.00;5080019;28;20059;-83
2022/03/26 04:31:56;;;;;;;40.33;16.70;;;;;;;6.25;64.69;103022.69;5080428;28;20023;-84
2022/03/26 04:34:22;;;;;;;35.63;16.40;;;;;;;6.26;64.78;103024.47;5082183;28;20031;-83
2022/03/26 04:36:47;;;;;;;33.03;15.82;;;;;;;6.24;68.55;103024.44;5079295;28;20024;-83
2022/03/26 04:39:12;;;;;;;37.72;17.05;;;;;;;6.19;65.53;103020.00;5078602;28;20048;-84
2022/03/26 04:41:38;;;;;;;35.15;16.98;;;;;;;6.19;65.50;103027.88;5078419;28;20122;-83
2022/03/26 04:44:03;;;;;;;37.17;16.73;;;;;;;6.11;67.16;103025.16;5076687;28;20048;-84
2022/03/26 04:46:29;;;;;;;32.60;16.52;;;;;;;6.11;66.39;103025.16;5077858;28;20032;-84
2022/03/26 04:48:54;;;;;;;35.03;16.77;;;;;;;6.09;65.41;103022.50;5079321;28;20039;-83
2022/03/26 04:51:20;;;;;;;33.65;16.35;;;;;;;6.10;65.41;103019.00;5080745;28;20038;-83
2022/03/26 04:53:45;;;;;;;37.13;15.90;;;;;;;6.08;65.30;103007.59;5077052;28;20071;-84
2022/03/26 04:56:11;;;;;;;30.85;14.35;;;;;;;6.06;65.41;103016.31;5081512;28;20024;-83
2022/03/26 04:58:36;;;;;;;30.80;15.50;;;;;;;6.12;65.47;103027.81;5079151;28;20476;-83
2022/03/26 05:01:01;;;;;;;30.17;15.55;;;;;;;6.06;65.33;103016.31;5076402;28;20036;-83
2022/03/26 05:03:27;;;;;;;32.63;15.15;;;;;;;6.06;65.39;103017.22;5083168;28;20040;-83
2022/03/26 05:05:52;;;;;;;31.35;14.57;;;;;;;6.06;65.39;103022.47;5082266;28;20032;-83
2022/03/26 05:08:18;;;;;;;33.92;16.15;;;;;;;6.06;69.27;103021.56;5083936;28;20483;-83
2022/03/26 05:10:45;;;;;;;30.15;16.05;;;;;;;6.04;68.24;103026.81;5082129;28;20031;-84
2022/03/26 05:13:11;;;;;;;32.70;15.10;;;;;;;5.97;67.46;103019.72;5081420;28;20032;-83
2022/03/26 05:15:36;;;;;;;37.80;16.60;;;;;;;5.99;66.08;103020.63;5084057;28;20395;-83
2022/03/26 05:18:03;;;;;;;36.75;14.95;;;;;;;5.95;65.76;103018.81;5083870;28;20111;-83
2022/03/26 05:20:29;;;;;;;38.53;16.67;;;;;;;5.89;67.94;103023.94;5083361;28;20027;-83
2022/03/26 05:22:54;;;;;;;28.98;14.63;;;;;;;5.83;66.07;103035.25;5082917;28;20028;-83
2022/03/26 05:25:20;;;;;;;26.48;14.13;;;;;;;5.80;65.67;103036.94;5080256;28;20028;-83
2022/03/26 05:27:47;;;;;;;28.80;14.20;;;;;;;5.79;65.44;103035.19;5078307;28;20523;-83
2022/03/26 05:30:13;;;;;;;29.42;13.60;;;;;;;5.80;68.37;103043.06;5083123;28;20426;-84
2022/03/26 05:32:39;;;;;;;28.52;13.68;;;;;;;5.72;65.30;103035.94;5082864;28;20543;-84
2022/03/26 05:35:11;;;;;;;26.80;13.13;;;;;;;5.58;66.35;103023.47;5082808;28;20028;-83
2022/03/26 05:37:38;;;;;;;28.80;14.18;;;;;;;5.63;65.79;103042.78;5082248;28;20089;-83
2022/03/26 05:40:04;;;;;;;29.67;14.43;;;;;;;5.68;68.78;103048.09;5083346;28;20028;-83
2022/03/26 05:42:29;;;;;;;34.35;15.43;;;;;;;5.63;66.81;103055.91;5083117;28;20454;-83
2022/03/26 05:44:55;;;;;;;30.80;15.18;;;;;;;5.68;68.00;103052.47;5083469;28;20131;-83
2022/03/26 05:47:22;;;;;;;31.98;15.05;;;;;;;5.71;68.48;103057.78;5083320;28;20111;-83
2022/03/26 05:49:47;;;;;;;35.10;16.88;;;;;;;5.73;66.93;103056.94;5086206;28;20560;-83
2022/03/26 05:52:12;;;;;;;39.72;17.95;;;;;;;5.81;67.12;103062.31;5081982;28;20067;-83
2022/03/26 05:54:38;;;;;;;41.45;18.38;;;;;;;5.88;67.33;103065.06;5084611;28;20020;-83
2022/03/26 05:57:03;;;;;;;35.85;16.95;;;;;;;5.97;67.17;103069.59;5081928;28;20020;-84
2022/03/26 05:59:30;;;;;;;42.55;17.92;;;;;;;6.06;67.00;103075.00;5082375;28;20538;-83
2022/03/26 06:01:55;;;;;;;35.58;17.70;;;;;;;6.09;67.26;103059.25;5078910;28;20027;-83
2022/03/26 06:04:23;;;;;;;37.03;16.88;;;;;;;6.18;66.74;103069.00;5083820;28;20165;-83
2022/03/26 06:06:48;;;;;;;33.25;16.85;;;;;;;6.26;66.81;103062.13;5082076;28;20016;-83
2022/03/26 06:09:13;;;;;;;35.13;17.27;;;;;;;6.32;66.45;103077.97;5084169;28;20032;-84
2022/03/26 06:11:39;;;;;;;35.85;17.55;;;;;;;6.29;65.83;103069.16;5079037;28;20023;-83
2022/03/26 06:14:04;;;;;;;35.78;18.02;;;;;;;6.27;65.58;103061.25;5079360;28;20246;-83
2022/03/26 06:16:30;;;;;;;38.17;16.83;;;;;;;6.21;65.79;103057.69;5080467;28;20043;-84
2022/03/26 06:18:55;;;;;;;39.33;19.40;;;;;;;6.29;65.57;103067.41;5084990;28;20592;-84
2022/03/26 06:21:20;;;;;;;45.75;15.95;;;;;;;6.41;65.63;103071.94;5076259;28;20636;-84
2022/03/26 06:23:46;;;;;;;37.00;16.58;;;;;;;6.46;66.47;103072.00;5082446;28;20032;-84
2022/03/26 06:26:11;;;;;;;37.90;18.02;;;;;;;6.57;65.87;103078.28;5079400;28;20024;-84
2022/03/26 06:28:37;;;;;;;38.67;17.20;;;;;;;6.64;65.76;103085.38;5082207;28;20039;-84
2022/03/26 06:31:03;;;;;;;35.80;16.88;;;;;;;6.65;65.77;103074.88;5081090;28;20020;-84
2022/03/26 06:33:29;;;;;;;31.80;15.35;;;;;;;6.76;65.53;103080.28;5082514;28;20414;-83
2022/03/26 06:35:54;;;;;;;35.22;15.82;;;;;;;6.84;65.89;103089.13;5080599;28;20295;-84
2022/03/26 06:38:19;;;;;;;35.70;17.13;;;;;;;6.82;65.81;103080.34;5085854;28;20021;-84
2022/03/26 06:40:45;;;;;;;36.05;17.58;;;;;;;6.97;65.04;103099.78;5077810;28;20108;-84
2022/03/26 06:43:10;;;;;;;36.95;16.88;;;;;;;7.07;65.38;103096.38;5081257;28;20048;-85
2022/03/26 06:45:36;;;;;;;38.50;17.67;;;;;;;7.19;66.11;103096.53;5079718;28;20027;-84
2022/03/26 06:48:03;;;;;;;40.05;17.75;;;;;;;7.35;64.91;103101.03;5081294;28;20078;-84
2022/03/26 06:50:29;;;;;;;36.47;17.80;;;;;;;7.41;64.86;103087.97;5081807;28;20104;-84
2022/03/26 06:52:55;;;;;;;37.88;16.85;;;;;;;7.54;64.19;103090.69;5080442;28;20127;-84
2022/03/26 06:55:21;;;;;;;44.35;17.52;;;;;;;7.69;64.59;103093.44;5083494;28;20484;-83
2022/03/26 06:57:47;;;;;;;37.97;17.25;;;;;;;7.83;64.73;103097.09;5080927;28;20135;-83
2022/03/26 07:00:13;;;;;;;43.20;17.35;;;;;;;7.92;64.52;103098.88;5079484;28;20475;-83
2022/03/26 07:02:39;;;;;;;35.33;17.90;;;;;;;8.04;64.06;103106.88;5078537;28;20028;-83
2022/03/26 07:05:05;;;;;;;43.20;17.30;;;;;;;8.16;63.49;103108.72;5083573;28;20089;-83
2022/03/26 07:07:30;;;;;;;36.22;18.30;;;;;;;8.24;63.15;103101.72;5080428;28;20115;-84
2022/03/26 07:09:56;;;;;;;38.40;18.67;;;;;;;8.35;62.67;103107.09;5082040;28;20684;-83
2022/03/26 07:12:21;;;;;;;43.40;20.17;;;;;;;8.42;62.39;103104.50;5076460;28;20031;-84
2022/03/26 07:14:47;;;;;;;44.30;19.55;;;;;;;8.56;62.30;103114.25;5080225;28;20099;-83
2022/03/26 07:17:12;;;;;;;38.33;17.80;;;;;;;8.66;62.01;103103.72;5082522;28;20115;-84
2022/03/26 07:19:38;;;;;;;40.65;20.77;;;;;;;8.77;61.67;103110.81;5079033;28;20027;-83
2022/03/26 07:22:03;;;;;;;47.90;19.73;;;;;;;8.93;61.96;103110.88;5079953;28;20024;-84
2022/03/26 07:24:29;;;;;;;39.60;19.25;;;;;;;9.06;61.79;103113.56;5082431;28;20507;-83
2022/03/26 07:26:54;;;;;;;44.97;19.50;;;;;;;9.12;61.68;103093.31;5081981;28;20389;-84
2022/03/26 07:29:19;;;;;;;45.00;20.60;;;;;;;9.38;60.68;103108.34;5080497;28;20024;-83
2022/03/26 07:31:45;;;;;;;44.65;21.20;;;;;;;9.54;60.94;103120.66;5081081;28;20063;-83
2022/03/26 07:34:12;;;;;;;37.40;18.92;;;;;;;9.64;60.42;103114.50;5083424;28;20104;-83
2022/03/26 07:36:37;;;;;;;42.05;20.20;;;;;;;9.82;60.30;103113.63;5078257;28;20039;-84
2022/03/26 07:39:03;;;;;;;46.67;19.70;;;;;;;9.94;59.67;103116.25;5082434;28;20063;-83
2022/03/26 07:41:28;;;;;;;45.00;21.33;;;;;;;10.05;59.19;103110.94;5079925;28;20075;-84
2022/03/26 07:43:53;;;;;;;41.65;19.15;;;;;;;10.22;59.40;103121.50;5080287;28;20035;-84
2022/03/26 07:46:19;;;;;;;49.58;20.80;;;;;;;10.34;58.67;103118.84;5080141;28;20039;-85
2022/03/26 07:48:45;;;;;;;41.15;19.63;;;;;;;10.46;58.23;103118.81;5077324;28;20524;-83
2022/03/26 07:51:11;;;;;;;41.03;20.85;;;;;;;10.58;57.98;103112.59;5079030;28;20038;-83
2022/03/26 07:53:36;;;;;;;46.90;21.17;;;;;;;10.77;57.55;103125.75;5079967;28;20023;-84
2022/03/26 07:56:02;;;;;;;39.15;19.42;;;;;;;10.91;56.88;103123.91;5076619;28;20020;-83
2022/03/26 07:58:27;;;;;;;41.08;21.17;;;;;;;11.14;56.73;103129.09;5078309;28;20510;-84
2022/03/26 08:00:52;;;;;;;39.05;20.67;;;;;;;11.46;56.03;103124.47;5078558;28;20028;-83
2022/03/26 08:03:18;;;;;;;43.15;21.17;;;;;;;11.80;54.68;103123.31;5081425;28;20035;-83
2022/03/26 08:05:43;;;;;;;41.03;19.67;;;;;;;12.14;53.80;103126.59;5077986;28;20055;-83
2022/03/26 08:08:08;;;;;;;42.10;20.92;;;;;;;12.41;53.31;103128.94;5077993;28;20032;-83
2022/03/26 08:10:34;;;;;;;41.75;20.90;;;;;;;12.67;52.27;103127.75;5079800;28;20127;-83
2022/03/26 08:12:59;;;;;;;47.40;22.35;;;;;;;12.99;52.40;103135.31;5077040;28;20511;-84
2022/03/26 08:15:24;;;;;;;36.70;19.60;;;;;;;13.32;49.71;103127.78;5080086;28;20036;-83
2022/03/26 08:17:49;;;;;;;40.00;19.60;;;;;;;13.63;49.57;103125.53;5079300;28;20473;-83
2022/03/26 08:20:15;;;;;;;41.45;21.52;;;;;;;13.97;49.74;103124.03;5079102;28;20085;-83
2022/03/26 08:22:41;;;;;;;36.58;19.15;;;;;;;14.28;48.76;103136.78;5078576;28;20024;-84
2022/03/26 08:25:11;;;;;;;36.60;20.15;;;;;;;14.59;47.43;103136.22;5082130;28;20077;-83
2022/03/26 08:27:38;;;;;;;41.15;20.38;;;;;;;14.76;47.35;103142.94;5079642;28;20517;-83
2022/03/26 08:30:04;;;;;;;41.45;21.38;;;;;;;14.97;47.90;103138.97;5078316;28;20532;-83
2022/03/26 08:32:29;;;;;;;38.75;19.85;;;;;;;15.27;46.33;103144.50;5078862;28;20093;-84
2022/03/26 08:34:55;;;;;;;38.17;19.30;;;;;;;15.60;46.49;103145.50;5080103;28;20024;-83
2022/03/26 08:37:20;;;;;;;34.10;20.50;;;;;;;15.95;45.65;103152.66;5082693;28;20107;-84
2022/03/26 08:39:45;;;;;;;37.72;19.75;;;;;;;16.25;44.58;103145.63;5085368;28;20385;-84
2022/03/26 08:42:11;;;;;;;38.30;21.27;;;;;;;16.53;43.26;103153.75;5082545;28;20487;-84
2022/03/26 08:44:36;;;;;;;33.42;18.67;;;;;;;16.80;43.39;103152.13;5083455;28;20463;-84
2022/03/26 08:47:06;;;;;;;34.58;19.27;;;;;;;17.06;43.81;103153.13;5079868;28;20109;-85
2022/03/26 08:49:32;;;;;;;37.70;19.02;;;;;;;17.47;41.82;103154.50;5083288;28;20020;-85
2022/03/26 08:51:58;;;;;;;35.33;19.30;;;;;;;17.71;41.45;103151.94;5084263;28;20184;-83
2022/03/26 08:54:23;;;;;;;38.85;19.05;;;;;;;18.13;41.64;103146.09;5082969;28;20154;-84
2022/03/26 08:56:49;;;;;;;35.05;18.25;;;;;;;18.60;40.85;103147.94;5083491;28;20024;-84
2022/03/26 08:59:14;;;;;;;33.33;18.35;;;;;;;19.02;39.04;103149.06;5076358;28;20028;-83
2022/03/26 09:01:40;;;;;;;32.80;17.85;;;;;;;19.23;38.39;103153.59;5080291;28;20071;-83
2022/03/26 09:04:06;;;;;;;34.90;17.17;;;;;;;19.52;37.28;103149.72;5082180;28;20050;-84
2022/03/26 09:06:31;;;;;;;33.72;17.38;;;;;;;19.78;36.29;103151.38;5083802;28;20032;-83
2022/03/26 09:08:58;;;;;;;37.25;18.55;;;;;;;20.03;36.98;103155.69;5081976;28;20024;-85
2022/03/26 09:11:23;;;;;;;37.72;18.40;;;;;;;20.46;35.48;103151.97;5082189;28;20027;-84
2022/03/26 09:13:49;;;;;;;38.63;20.15;;;;;;;20.69;35.31;103159.00;5079300;28;20020;-84
2022/03/26 09:16:15;;;;;;;37.20;20.25;;;;;;;21.02;33.91;103156.56;5087245;28;20541;-84
2022/03/26 09:18:40;;;;;;;38.33;19.75;;;;;;;21.20;34.81;103167.41;5084989;28;20028;-84
2022/03/26 09:21:05;;;;;;;33.80;18.55;;;;;;;21.65;34.00;103162.50;5085783;28;20034;-84
2022/03/26 09:23:31;;;;;;;33.92;18.30;;;;;;;22.00;32.96;103159.81;5086807;28;20034;-84
2022/03/26 09:25:56;;;;;;;35.80;17.90;;;;;;;22.52;33.27;103153.53;5082682;28;20035;-84
2022/03/26 09:28:21;;;;;;;39.03;19.73;;;;;;;23.04;30.38;103156.13;5085381;28;20109;-84
2022/03/26 09:30:47;;;;;;;33.28;18.80;;;;;;;23.52;29.99;103167.75;5088056;28;20028;-85
2022/03/26 09:33:12;;;;;;;36.95;18.30;;;;;;;23.95;29.69;103167.94;5094548;28;20046;-85
2022/03/26 09:35:38;;;;;;;32.38;18.70;;;;;;;24.42;28.99;103159.66;5095610;28;20580;-84
2022/03/26 09:38:04;;;;;;;30.33;17.67;;;;;;;24.74;28.38;103159.50;5096395;28;20076;-85
2022/03/26 09:40:31;;;;;;;33.78;19.98;;;;;;;24.78;27.00;103161.03;5099747;28;20052;-85
2022/03/26 09:42:57;;;;;;;33.97;18.58;;;;;;;25.01;27.82;103154.16;5089975;28;20371;-85
2022/03/26 09:45:22;;;;;;;32.70;18.10;;;;;;;25.49;28.27;103160.03;5093672;28;20035;-85
2022/03/26 09:47:48;;;;;;;36.58;18.58;;;;;;;25.82;26.42;103152.38;5085175;28;20025;-85
2022/03/26 09:50:14;;;;;;;31.80;17.77;;;;;;;26.35;25.43;103153.22;5088174;28;20118;-85
2022/03/26 09:52:40;;;;;;;33.70;18.55;;;;;;;26.59;25.62;103156.06;5086754;28;20032;-85
2022/03/26 09:55:06;;;;;;;34.13;18.48;;;;;;;27.00;24.39;103156.72;5095433;27;20039;-85
2022/03/26 09:57:31;;;;;;;27.85;16.85;;;;;;;27.54;24.59;103156.34;5088639;28;20066;-85
2022/03/26 10:00:00;;;;;;;31.38;18.05;;;;;;;27.97;22.50;103157.53;5090145;28;20395;-86
2022/03/26 10:02:26;;;;;;;31.15;18.10;;;;;;;28.56;23.42;103158.41;5087451;28;20366;-86
2022/03/26 10:04:52;;;;;;;33.97;18.83;;;;;;;28.67;23.20;103152.94;5093280;28;20032;-85
2022/03/26 10:07:25;;;;;;;28.77;17.77;;;;;;;28.81;22.76;103149.09;5094411;28;20036;-86
2022/03/26 10:09:55;;;;;;;30.55;19.92;;;;;;;29.09;21.71;103156.78;5091746;28;20023;-86
2022/03/26 10:12:30;;;;;;;31.42;19.25;;;;;;;29.36;21.70;103152.75;5087729;28;20036;-86
2022/03/26 10:14:57;;;;;;;33.65;18.60;;;;;;;30.16;20.06;103147.69;5091666;28;20026;-85
2022/03/26 10:17:26;;;;;;;27.52;16.83;;;;;;;30.49;20.59;103152.03;5097185;28;20024;-86
2022/03/26 10:19:54;;;;;;;28.92;17.67;;;;;;;30.63;20.20;103139.03;5084924;28;20407;-86
2022/03/26 10:22:26;;;;;;;29.38;16.30;;;;;;;30.78;19.00;103147.72;5088696;28;20491;-87
2022/03/26 10:24:53;;;;;;;24.92;15.13;;;;;;;30.87;18.87;103141.44;5096637;28;20035;-85
2022/03/26 10:27:18;;;;;;;24.13;14.77;;;;;;;30.87;18.59;103139.59;5089961;28;20039;-85
2022/03/26 10:29:53;;;;;;;44.15;27.85;;;;;;;30.81;19.83;103145.59;5088137;27;20039;-86
2022/03/26 10:35:27;;;;;;;38.47;23.20;;;;;;;30.76;18.55;103139.69;5080924;28;20050;-86
2022/03/26 10:37:58;;;;;;;52.17;30.83;;;;;;;30.99;19.48;103138.47;5094047;28;20023;-86
2022/03/26 10:40:27;;;;;;;34.17;19.97;;;;;;;30.98;18.49;103141.34;5092878;28;20054;-85
2022/03/26 10:43:01;;;;;;;26.75;13.88;;;;;;;30.49;18.55;103140.25;5089465;28;20289;-86
2022/03/26 10:45:30;;;;;;;20.45;13.10;;;;;;;30.06;18.38;103134.97;5088135;28;20024;-86
2022/03/26 10:47:57;;;;;;;24.13;13.50;;;;;;;30.14;19.19;103127.03;5094909;28;20507;-86
2022/03/26 10:50:24;;;;;;;25.27;13.98;;;;;;;29.96;19.20;103127.59;5088451;28;20168;-87
2022/03/26 10:52:54;;;;;;;19.05;12.13;;;;;;;29.93;19.26;103129.72;5088738;28;20032;-86
2022/03/26 10:55:19;;;;;;;30.45;20.65;;;;;;;29.93;18.89;103121.53;5095035;28;20593;-86
2022/03/26 10:57:47;;;;;;;29.52;19.27;;;;;;;29.84;18.72;103130.50;5082347;28;20553;-87
2022/03/26 11:00:17;;;;;;;23.30;11.95;;;;;;;28.53;19.75;103123.25;5088090;28;20058;-87
2022/03/26 11:02:46;;;;;;;21.30;12.35;;;;;;;28.31;20.68;103121.38;5081349;28;20039;-87
2022/03/26 11:05:12;;;;;;;21.45;12.32;;;;;;;28.29;20.28;103113.31;5081900;28;20119;-86
2022/03/26 11:07:41;;;;;;;23.27;13.15;;;;;;;27.84;21.84;103115.09;5080911;28;20054;-86
2022/03/26 11:10:08;;;;;;;16.00;10.82;;;;;;;27.71;22.27;103131.47;5090421;28;20118;-87
2022/03/26 11:12:35;;;;;;;22.90;12.10;;;;;;;28.00;22.26;103114.78;5089298;28;20031;-86